sensor_id;sensor_type;location;lat;lon;timestamp;temperature;humidity
254;DHT22;590;48.772;8.846;2023-11-18T00:00:21;5.90;99.90
254;DHT22;590;48.772;8.846;2023-11-18T00:02:50;5.80;99.90
254;DHT22;590;48.772;8.846;2023-11-18T00:05:18;5.80;99.90
254;DHT22;590;48.772;8.846;2023-11-18T00:07:46;5.80;99.90
254;DHT22;590;48.772;8.846;2023-11-18T00:10:15;5.70;99.90
254;DHT22;590;48.772;8.846;2023-11-18T00:12:44;5.70;99.90
254;DHT22;590;48.772;8.846;2023-11-18T00:15:13;5.70;99.90
254;DHT22;590;48.772;8.846;2023-11-18T00:17:41;5.60;99.90
254;DHT22;590;48.772;8.846;2023-11-18T00:20:10;5.60;99.90
254;DHT22;590;48.772;8.846;2023-11-18T00:22:41;5.60;99.90
254;DHT22;590;48.772;8.846;2023-11-18T00:25:10;5.60;99.90
254;DHT22;590;48.772;8.846;2023-11-18T00:27:42;5.60;99.90
254;DHT22;590;48.772;8.846;2023-11-18T00:30:11;5.60;99.90
254;DHT22;590;48.772;8.846;2023-11-18T00:32:39;5.60;99.90
254;DHT22;590;48.772;8.846;2023-11-18T00:35:08;5.60;99.90
254;DHT22;590;48.772;8.846;2023-11-18T00:37:38;5.60;99.90
254;DHT22;590;48.772;8.846;2023-11-18T00:40:07;5.70;99.90
254;DHT22;590;48.772;8.846;2023-11-18T00:42:36;5.70;99.90
254;DHT22;590;48.772;8.846;2023-11-18T00:45:06;5.70;99.90
254;DHT22;590;48.772;8.846;2023-11-18T00:47:35;5.70;99.90
254;DHT22;590;48.772;8.846;2023-11-18T00:50:04;5.70;99.90
254;DHT22;590;48.772;8.846;2023-11-18T00:52:35;5.70;99.90
254;DHT22;590;48.772;8.846;2023-11-18T00:55:06;5.70;99.90
254;DHT22;590;48.772;8.846;2023-11-18T00:57:34;5.70;99.90
254;DHT22;590;48.772;8.846;2023-11-18T01:00:02;5.70;99.90
254;DHT22;590;48.772;8.846;2023-11-18T01:02:32;5.70;99.90
254;DHT22;590;48.772;8.846;2023-11-18T01:05:00;5.70;99.90
254;DHT22;590;48.772;8.846;2023-11-18T01:07:28;5.70;99.90
254;DHT22;590;48.772;8.846;2023-11-18T01:09:56;5.70;99.90
254;DHT22;590;48.772;8.846;2023-11-18T01:12:24;5.70;99.90
254;DHT22;590;48.772;8.846;2023-11-18T01:14:52;5.70;99.90
254;DHT22;590;48.772;8.846;2023-11-18T01:17:20;5.70;99.90
254;DHT22;590;48.772;8.846;2023-11-18T01:19:50;5.70;99.90
254;DHT22;590;48.772;8.846;2023-11-18T01:22:18;5.70;99.90
254;DHT22;590;48.772;8.846;2023-11-18T01:24:46;5.80;99.90
254;DHT22;590;48.772;8.846;2023-11-18T01:27:14;5.80;99.90
254;DHT22;590;48.772;8.846;2023-11-18T01:29:42;5.80;99.90
254;DHT22;590;48.772;8.846;2023-11-18T01:32:11;5.80;99.90
254;DHT22;590;48.772;8.846;2023-11-18T01:34:41;5.80;99.90
254;DHT22;590;48.772;8.846;2023-11-18T01:37:12;5.80;99.90
254;DHT22;590;48.772;8.846;2023-11-18T01:39:41;5.80;99.90
254;DHT22;590;48.772;8.846;2023-11-18T01:42:09;5.80;99.90
254;DHT22;590;48.772;8.846;2023-11-18T01:44:40;5.80;99.90
254;DHT22;590;48.772;8.846;2023-11-18T01:47:09;5.80;99.90
254;DHT22;590;48.772;8.846;2023-11-18T01:49:40;5.90;99.90
254;DHT22;590;48.772;8.846;2023-11-18T01:52:10;5.90;99.90
254;DHT22;590;48.772;8.846;2023-11-18T01:54:42;5.90;99.90
254;DHT22;590;48.772;8.846;2023-11-18T01:57:11;5.90;99.90
254;DHT22;590;48.772;8.846;2023-11-18T01:59:41;5.90;99.90
254;DHT22;590;48.772;8.846;2023-11-18T02:02:09;5.90;99.90
254;DHT22;590;48.772;8.846;2023-11-18T02:04:41;5.90;99.90
254;DHT22;590;48.772;8.846;2023-11-18T02:07:12;5.90;99.90
254;DHT22;590;48.772;8.846;2023-11-18T02:09:43;5.90;99.90
254;DHT22;590;48.772;8.846;2023-11-18T02:12:21;5.90;99.90
254;DHT22;590;48.772;8.846;2023-11-18T02:14:50;5.80;99.90
254;DHT22;590;48.772;8.846;2023-11-18T02:17:22;5.80;99.90
254;DHT22;590;48.772;8.846;2023-11-18T02:19:52;5.80;99.90
254;DHT22;590;48.772;8.846;2023-11-18T02:22:22;5.80;99.90
254;DHT22;590;48.772;8.846;2023-11-18T02:24:54;5.70;99.90
254;DHT22;590;48.772;8.846;2023-11-18T02:27:23;5.70;99.90
254;DHT22;590;48.772;8.846;2023-11-18T02:29:53;5.70;99.90
254;DHT22;590;48.772;8.846;2023-11-18T02:32:27;5.70;99.90
254;DHT22;590;48.772;8.846;2023-11-18T02:35:02;5.60;99.90
254;DHT22;590;48.772;8.846;2023-11-18T02:37:38;5.60;99.90
254;DHT22;590;48.772;8.846;2023-11-18T02:40:11;5.50;99.90
254;DHT22;590;48.772;8.846;2023-11-18T02:42:44;5.50;99.90
254;DHT22;590;48.772;8.846;2023-11-18T02:45:13;5.40;99.90
254;DHT22;590;48.772;8.846;2023-11-18T02:47:44;5.30;99.90
254;DHT22;590;48.772;8.846;2023-11-18T02:50:12;5.30;99.90
254;DHT22;590;48.772;8.846;2023-11-18T02:52:42;5.30;99.90
254;DHT22;590;48.772;8.846;2023-11-18T02:55:09;5.30;99.90
254;DHT22;590;48.772;8.846;2023-11-18T02:57:40;5.20;99.90
254;DHT22;590;48.772;8.846;2023-11-18T03:00:10;5.20;99.90
254;DHT22;590;48.772;8.846;2023-11-18T03:02:43;5.10;99.90
254;DHT22;590;48.772;8.846;2023-11-18T03:05:13;5.10;99.90
254;DHT22;590;48.772;8.846;2023-11-18T03:07:42;5.00;99.90
254;DHT22;590;48.772;8.846;2023-11-18T03:10:11;5.00;99.90
254;DHT22;590;48.772;8.846;2023-11-18T03:12:47;4.90;99.90
254;DHT22;590;48.772;8.846;2023-11-18T03:15:17;4.90;99.90
254;DHT22;590;48.772;8.846;2023-11-18T03:17:46;4.80;99.90
254;DHT22;590;48.772;8.846;2023-11-18T03:20:16;4.80;99.90
254;DHT22;590;48.772;8.846;2023-11-18T03:22:44;4.80;99.90
254;DHT22;590;48.772;8.846;2023-11-18T03:25:13;4.80;99.90
254;DHT22;590;48.772;8.846;2023-11-18T03:27:41;4.80;99.90
254;DHT22;590;48.772;8.846;2023-11-18T03:30:10;4.80;99.90
254;DHT22;590;48.772;8.846;2023-11-18T03:32:40;4.70;99.90
254;DHT22;590;48.772;8.846;2023-11-18T03:35:08;4.70;99.90
254;DHT22;590;48.772;8.846;2023-11-18T03:37:37;4.70;99.90
254;DHT22;590;48.772;8.846;2023-11-18T03:40:09;4.60;99.90
254;DHT22;590;48.772;8.846;2023-11-18T03:42:38;4.60;99.90
254;DHT22;590;48.772;8.846;2023-11-18T03:45:07;4.60;99.90
254;DHT22;590;48.772;8.846;2023-11-18T03:47:36;4.60;99.90
254;DHT22;590;48.772;8.846;2023-11-18T03:50:06;4.50;99.90
254;DHT22;590;48.772;8.846;2023-11-18T03:52:36;4.40;99.90
254;DHT22;590;48.772;8.846;2023-11-18T03:55:05;4.40;99.90
254;DHT22;590;48.772;8.846;2023-11-18T03:57:33;4.30;99.90
254;DHT22;590;48.772;8.846;2023-11-18T04:00:02;4.40;99.90
254;DHT22;590;48.772;8.846;2023-11-18T04:02:31;4.30;99.90
254;DHT22;590;48.772;8.846;2023-11-18T04:05:01;4.30;99.90
254;DHT22;590;48.772;8.846;2023-11-18T04:07:31;4.30;99.90
254;DHT22;590;48.772;8.846;2023-11-18T04:09:59;4.30;99.90
254;DHT22;590;48.772;8.846;2023-11-18T04:12:28;4.30;99.90
254;DHT22;590;48.772;8.846;2023-11-18T04:14:57;4.30;99.90
254;DHT22;590;48.772;8.846;2023-11-18T04:17:25;4.30;99.90
254;DHT22;590;48.772;8.846;2023-11-18T04:19:54;4.20;99.90
254;DHT22;590;48.772;8.846;2023-11-18T04:22:23;4.20;99.90
254;DHT22;590;48.772;8.846;2023-11-18T04:24:53;4.20;99.90
254;DHT22;590;48.772;8.846;2023-11-18T04:27:22;4.10;99.90
254;DHT22;590;48.772;8.846;2023-11-18T04:29:50;4.10;99.90
254;DHT22;590;48.772;8.846;2023-11-18T04:32:18;4.10;99.90
254;DHT22;590;48.772;8.846;2023-11-18T04:34:46;4.00;99.90
254;DHT22;590;48.772;8.846;2023-11-18T04:37:16;3.90;99.90
254;DHT22;590;48.772;8.846;2023-11-18T04:39:44;4.00;99.90
254;DHT22;590;48.772;8.846;2023-11-18T04:42:15;4.10;99.90
254;DHT22;590;48.772;8.846;2023-11-18T04:44:43;4.10;99.90
254;DHT22;590;48.772;8.846;2023-11-18T04:47:11;4.20;99.90
254;DHT22;590;48.772;8.846;2023-11-18T04:49:39;4.20;99.90
254;DHT22;590;48.772;8.846;2023-11-18T04:52:07;4.30;99.90
254;DHT22;590;48.772;8.846;2023-11-18T04:54:35;4.20;99.90
254;DHT22;590;48.772;8.846;2023-11-18T04:57:04;4.30;99.90
254;DHT22;590;48.772;8.846;2023-11-18T04:59:33;4.30;99.90
254;DHT22;590;48.772;8.846;2023-11-18T05:02:01;4.40;99.90
254;DHT22;590;48.772;8.846;2023-11-18T05:04:30;4.40;99.90
254;DHT22;590;48.772;8.846;2023-11-18T05:06:58;4.40;99.90
254;DHT22;590;48.772;8.846;2023-11-18T05:09:26;4.40;99.90
254;DHT22;590;48.772;8.846;2023-11-18T05:11:54;4.30;99.90
254;DHT22;590;48.772;8.846;2023-11-18T05:14:22;4.30;99.90
254;DHT22;590;48.772;8.846;2023-11-18T05:16:52;4.40;99.90
254;DHT22;590;48.772;8.846;2023-11-18T05:19:20;4.30;99.90
254;DHT22;590;48.772;8.846;2023-11-18T05:21:48;4.30;99.90
254;DHT22;590;48.772;8.846;2023-11-18T05:24:17;4.20;99.90
254;DHT22;590;48.772;8.846;2023-11-18T05:26:44;4.20;99.90
254;DHT22;590;48.772;8.846;2023-11-18T05:29:12;4.20;99.90
254;DHT22;590;48.772;8.846;2023-11-18T05:31:43;4.10;99.90
254;DHT22;590;48.772;8.846;2023-11-18T05:34:13;4.00;99.90
254;DHT22;590;48.772;8.846;2023-11-18T05:36:41;4.10;99.90
254;DHT22;590;48.772;8.846;2023-11-18T05:39:09;4.10;99.90
254;DHT22;590;48.772;8.846;2023-11-18T05:41:38;4.10;99.90
254;DHT22;590;48.772;8.846;2023-11-18T05:44:07;4.20;99.90
254;DHT22;590;48.772;8.846;2023-11-18T05:46:36;4.20;99.90
254;DHT22;590;48.772;8.846;2023-11-18T05:49:05;4.10;99.90
254;DHT22;590;48.772;8.846;2023-11-18T05:51:36;4.10;99.90
254;DHT22;590;48.772;8.846;2023-11-18T05:54:04;4.10;99.90
254;DHT22;590;48.772;8.846;2023-11-18T05:56:33;4.10;99.90
254;DHT22;590;48.772;8.846;2023-11-18T05:59:01;4.10;99.90
254;DHT22;590;48.772;8.846;2023-11-18T06:01:30;4.00;99.90
254;DHT22;590;48.772;8.846;2023-11-18T06:03:58;4.00;99.90
254;DHT22;590;48.772;8.846;2023-11-18T06:06:27;4.00;99.90
254;DHT22;590;48.772;8.846;2023-11-18T06:08:57;4.00;99.90
254;DHT22;590;48.772;8.846;2023-11-18T06:11:31;3.90;99.90
254;DHT22;590;48.772;8.846;2023-11-18T06:13:58;3.90;99.90
254;DHT22;590;48.772;8.846;2023-11-18T06:16:26;3.80;99.90
254;DHT22;590;48.772;8.846;2023-11-18T06:18:56;3.80;99.90
254;DHT22;590;48.772;8.846;2023-11-18T06:21:26;3.70;99.90
254;DHT22;590;48.772;8.846;2023-11-18T06:23:59;3.70;99.90
254;DHT22;590;48.772;8.846;2023-11-18T06:26:27;3.70;99.90
254;DHT22;590;48.772;8.846;2023-11-18T06:28:56;3.70;99.90
254;DHT22;590;48.772;8.846;2023-11-18T06:31:26;3.70;99.90
254;DHT22;590;48.772;8.846;2023-11-18T06:33:56;3.60;99.90
254;DHT22;590;48.772;8.846;2023-11-18T06:36:24;3.60;99.90
254;DHT22;590;48.772;8.846;2023-11-18T06:38:53;3.60;99.90
254;DHT22;590;48.772;8.846;2023-11-18T06:41:24;3.60;99.90
254;DHT22;590;48.772;8.846;2023-11-18T06:43:53;3.60;99.90
254;DHT22;590;48.772;8.846;2023-11-18T06:46:29;3.70;99.90
254;DHT22;590;48.772;8.846;2023-11-18T06:49:00;3.80;99.90
254;DHT22;590;48.772;8.846;2023-11-18T06:51:31;3.80;99.90
254;DHT22;590;48.772;8.846;2023-11-18T06:54:03;3.90;99.90
254;DHT22;590;48.772;8.846;2023-11-18T06:56:39;4.00;99.90
254;DHT22;590;48.772;8.846;2023-11-18T06:59:09;4.00;99.90
254;DHT22;590;48.772;8.846;2023-11-18T07:01:40;4.00;99.90
254;DHT22;590;48.772;8.846;2023-11-18T07:04:09;4.10;99.90
254;DHT22;590;48.772;8.846;2023-11-18T07:06:38;4.20;99.90
254;DHT22;590;48.772;8.846;2023-11-18T07:09:06;4.30;99.90
254;DHT22;590;48.772;8.846;2023-11-18T07:11:41;4.40;99.90
254;DHT22;590;48.772;8.846;2023-11-18T07:14:09;4.50;99.90
254;DHT22;590;48.772;8.846;2023-11-18T07:16:39;4.50;99.90
254;DHT22;590;48.772;8.846;2023-11-18T07:19:08;4.70;99.90
254;DHT22;590;48.772;8.846;2023-11-18T07:21:37;4.80;99.90
254;DHT22;590;48.772;8.846;2023-11-18T07:24:05;4.90;99.90
254;DHT22;590;48.772;8.846;2023-11-18T07:26:34;4.90;99.90
254;DHT22;590;48.772;8.846;2023-11-18T07:29:03;5.00;99.90
254;DHT22;590;48.772;8.846;2023-11-18T07:31:34;5.10;99.90
254;DHT22;590;48.772;8.846;2023-11-18T07:34:03;5.20;99.90
254;DHT22;590;48.772;8.846;2023-11-18T07:36:32;5.20;99.90
254;DHT22;590;48.772;8.846;2023-11-18T07:39:01;5.30;99.90
254;DHT22;590;48.772;8.846;2023-11-18T07:41:31;5.30;99.90
254;DHT22;590;48.772;8.846;2023-11-18T07:44:00;5.40;99.90
254;DHT22;590;48.772;8.846;2023-11-18T07:46:30;5.50;99.90
254;DHT22;590;48.772;8.846;2023-11-18T07:48:59;5.60;99.90
254;DHT22;590;48.772;8.846;2023-11-18T07:51:28;5.60;99.90
254;DHT22;590;48.772;8.846;2023-11-18T07:53:56;5.70;99.90
254;DHT22;590;48.772;8.846;2023-11-18T07:56:25;5.80;99.90
254;DHT22;590;48.772;8.846;2023-11-18T07:58:55;5.80;99.90
254;DHT22;590;48.772;8.846;2023-11-18T08:01:23;5.90;99.90
254;DHT22;590;48.772;8.846;2023-11-18T08:03:54;5.90;99.90
254;DHT22;590;48.772;8.846;2023-11-18T08:06:22;6.00;99.90
254;DHT22;590;48.772;8.846;2023-11-18T08:08:53;5.90;99.90
254;DHT22;590;48.772;8.846;2023-11-18T08:11:24;5.90;99.90
254;DHT22;590;48.772;8.846;2023-11-18T08:13:53;6.00;99.90
254;DHT22;590;48.772;8.846;2023-11-18T08:16:21;6.00;99.90
254;DHT22;590;48.772;8.846;2023-11-18T08:18:49;6.00;99.90
254;DHT22;590;48.772;8.846;2023-11-18T08:21:19;6.10;99.90
254;DHT22;590;48.772;8.846;2023-11-18T08:23:49;6.20;99.90
254;DHT22;590;48.772;8.846;2023-11-18T08:26:19;6.30;99.90
254;DHT22;590;48.772;8.846;2023-11-18T08:28:47;6.30;99.90
254;DHT22;590;48.772;8.846;2023-11-18T08:31:15;6.40;99.90
254;DHT22;590;48.772;8.846;2023-11-18T08:33:44;6.40;99.90
254;DHT22;590;48.772;8.846;2023-11-18T08:36:13;6.30;99.90
254;DHT22;590;48.772;8.846;2023-11-18T08:38:42;6.40;99.90
254;DHT22;590;48.772;8.846;2023-11-18T08:41:14;6.40;99.90
254;DHT22;590;48.772;8.846;2023-11-18T08:43:42;6.50;99.90
254;DHT22;590;48.772;8.846;2023-11-18T08:46:13;6.40;99.90
254;DHT22;590;48.772;8.846;2023-11-18T08:48:42;6.50;99.90
254;DHT22;590;48.772;8.846;2023-11-18T08:51:11;6.60;99.90
254;DHT22;590;48.772;8.846;2023-11-18T08:53:40;6.70;99.90
254;DHT22;590;48.772;8.846;2023-11-18T08:56:10;6.80;99.90
254;DHT22;590;48.772;8.846;2023-11-18T08:58:42;6.80;99.90
254;DHT22;590;48.772;8.846;2023-11-18T09:01:12;7.00;99.90
254;DHT22;590;48.772;8.846;2023-11-18T09:03:43;7.10;99.90
254;DHT22;590;48.772;8.846;2023-11-18T09:06:16;7.20;99.90
254;DHT22;590;48.772;8.846;2023-11-18T09:08:54;7.30;99.90
254;DHT22;590;48.772;8.846;2023-11-18T09:11:26;7.40;99.90
254;DHT22;590;48.772;8.846;2023-11-18T09:13:59;7.50;99.90
254;DHT22;590;48.772;8.846;2023-11-18T09:16:31;7.50;99.90
254;DHT22;590;48.772;8.846;2023-11-18T09:19:05;7.50;99.90
254;DHT22;590;48.772;8.846;2023-11-18T09:21:33;7.60;99.90
254;DHT22;590;48.772;8.846;2023-11-18T09:24:03;7.60;99.90
254;DHT22;590;48.772;8.846;2023-11-18T09:26:36;7.60;99.90
254;DHT22;590;48.772;8.846;2023-11-18T09:29:04;7.60;99.90
254;DHT22;590;48.772;8.846;2023-11-18T09:31:35;7.70;99.90
254;DHT22;590;48.772;8.846;2023-11-18T09:34:04;7.80;99.90
254;DHT22;590;48.772;8.846;2023-11-18T09:36:33;7.90;99.90
254;DHT22;590;48.772;8.846;2023-11-18T09:39:02;8.00;99.90
254;DHT22;590;48.772;8.846;2023-11-18T09:41:30;8.10;99.90
254;DHT22;590;48.772;8.846;2023-11-18T09:44:06;8.20;99.90
254;DHT22;590;48.772;8.846;2023-11-18T09:46:36;8.30;99.90
254;DHT22;590;48.772;8.846;2023-11-18T09:49:16;8.50;99.90
254;DHT22;590;48.772;8.846;2023-11-18T09:51:45;8.60;99.90
254;DHT22;590;48.772;8.846;2023-11-18T09:54:20;8.70;99.90
254;DHT22;590;48.772;8.846;2023-11-18T09:56:56;8.80;99.90
254;DHT22;590;48.772;8.846;2023-11-18T09:59:42;8.80;99.90
254;DHT22;590;48.772;8.846;2023-11-18T10:02:13;8.90;99.90
254;DHT22;590;48.772;8.846;2023-11-18T10:04:46;8.90;99.90
254;DHT22;590;48.772;8.846;2023-11-18T10:07:18;9.00;99.90
254;DHT22;590;48.772;8.846;2023-11-18T10:09:47;9.00;99.90
254;DHT22;590;48.772;8.846;2023-11-18T10:12:16;8.90;99.90
254;DHT22;590;48.772;8.846;2023-11-18T10:14:52;8.90;99.90
254;DHT22;590;48.772;8.846;2023-11-18T10:17:20;9.00;99.90
254;DHT22;590;48.772;8.846;2023-11-18T10:19:56;9.00;99.90
254;DHT22;590;48.772;8.846;2023-11-18T10:22:27;9.10;99.90
254;DHT22;590;48.772;8.846;2023-11-18T10:24:57;9.20;99.90
254;DHT22;590;48.772;8.846;2023-11-18T10:27:28;9.40;99.90
254;DHT22;590;48.772;8.846;2023-11-18T10:29:58;9.50;99.90
254;DHT22;590;48.772;8.846;2023-11-18T10:32:29;9.50;99.90
254;DHT22;590;48.772;8.846;2023-11-18T10:35:04;9.50;99.30
254;DHT22;590;48.772;8.846;2023-11-18T10:37:33;9.60;98.60
254;DHT22;590;48.772;8.846;2023-11-18T10:40:14;9.60;97.60
254;DHT22;590;48.772;8.846;2023-11-18T10:42:42;9.70;97.20
254;DHT22;590;48.772;8.846;2023-11-18T10:45:23;9.70;97.60
254;DHT22;590;48.772;8.846;2023-11-18T10:47:52;9.80;97.00
254;DHT22;590;48.772;8.846;2023-11-18T10:50:22;9.80;96.80
254;DHT22;590;48.772;8.846;2023-11-18T10:52:56;9.90;97.10
254;DHT22;590;48.772;8.846;2023-11-18T10:55:34;10.00;96.90
254;DHT22;590;48.772;8.846;2023-11-18T10:58:03;10.00;96.90
254;DHT22;590;48.772;8.846;2023-11-18T11:00:49;10.00;96.20
254;DHT22;590;48.772;8.846;2023-11-18T11:03:19;10.10;95.60
254;DHT22;590;48.772;8.846;2023-11-18T11:05:50;10.10;95.50
254;DHT22;590;48.772;8.846;2023-11-18T11:08:21;10.10;95.30
254;DHT22;590;48.772;8.846;2023-11-18T11:11:03;10.10;93.60
254;DHT22;590;48.772;8.846;2023-11-18T11:13:35;10.10;93.60
254;DHT22;590;48.772;8.846;2023-11-18T11:16:07;10.10;93.70
254;DHT22;590;48.772;8.846;2023-11-18T11:18:40;10.10;93.70
254;DHT22;590;48.772;8.846;2023-11-18T11:21:14;10.00;92.80
254;DHT22;590;48.772;8.846;2023-11-18T11:23:50;10.10;93.50
254;DHT22;590;48.772;8.846;2023-11-18T11:26:34;10.10;93.20
254;DHT22;590;48.772;8.846;2023-11-18T11:29:18;10.10;93.40
254;DHT22;590;48.772;8.846;2023-11-18T11:31:59;10.10;93.10
254;DHT22;590;48.772;8.846;2023-11-18T11:34:30;10.10;92.90
254;DHT22;590;48.772;8.846;2023-11-18T11:36:59;10.00;92.90
254;DHT22;590;48.772;8.846;2023-11-18T11:39:28;10.00;93.50
254;DHT22;590;48.772;8.846;2023-11-18T11:41:56;10.00;93.60
254;DHT22;590;48.772;8.846;2023-11-18T11:44:26;9.90;94.20
254;DHT22;590;48.772;8.846;2023-11-18T11:46:59;9.90;94.20
254;DHT22;590;48.772;8.846;2023-11-18T11:49:36;9.90;94.10
254;DHT22;590;48.772;8.846;2023-11-18T11:52:15;9.90;92.70
254;DHT22;590;48.772;8.846;2023-11-18T11:54:55;9.90;92.90
254;DHT22;590;48.772;8.846;2023-11-18T11:57:25;9.80;93.40
254;DHT22;590;48.772;8.846;2023-11-18T11:59:58;9.80;93.20
254;DHT22;590;48.772;8.846;2023-11-18T12:02:49;9.80;93.50
254;DHT22;590;48.772;8.846;2023-11-18T12:05:19;9.80;93.40
254;DHT22;590;48.772;8.846;2023-11-18T12:07:52;9.80;93.30
254;DHT22;590;48.772;8.846;2023-11-18T12:10:26;9.80;93.50
254;DHT22;590;48.772;8.846;2023-11-18T12:13:07;9.80;93.80
254;DHT22;590;48.772;8.846;2023-11-18T12:15:48;9.80;93.30
254;DHT22;590;48.772;8.846;2023-11-18T12:18:22;9.70;93.70
254;DHT22;590;48.772;8.846;2023-11-18T12:20:51;9.70;93.90
254;DHT22;590;48.772;8.846;2023-11-18T12:23:23;9.70;94.40
254;DHT22;590;48.772;8.846;2023-11-18T12:25:53;9.70;94.40
254;DHT22;590;48.772;8.846;2023-11-18T12:28:25;9.80;94.40
254;DHT22;590;48.772;8.846;2023-11-18T12:30:55;9.70;94.60
254;DHT22;590;48.772;8.846;2023-11-18T12:34:01;9.70;94.90
254;DHT22;590;48.772;8.846;2023-11-18T12:43:01;9.60;94.50
254;DHT22;590;48.772;8.846;2023-11-18T12:46:01;9.50;94.70
254;DHT22;590;48.772;8.846;2023-11-18T12:48:43;9.40;94.20
254;DHT22;590;48.772;8.846;2023-11-18T12:51:15;9.40;94.40
254;DHT22;590;48.772;8.846;2023-11-18T12:53:50;9.30;94.50
254;DHT22;590;48.772;8.846;2023-11-18T12:56:20;9.30;94.60
254;DHT22;590;48.772;8.846;2023-11-18T12:58:50;9.30;94.80
254;DHT22;590;48.772;8.846;2023-11-18T13:01:18;9.20;94.80
254;DHT22;590;48.772;8.846;2023-11-18T13:03:47;9.10;94.80
254;DHT22;590;48.772;8.846;2023-11-18T13:06:17;9.10;94.80
254;DHT22;590;48.772;8.846;2023-11-18T13:08:47;9.00;94.90
254;DHT22;590;48.772;8.846;2023-11-18T13:11:15;9.00;95.00
254;DHT22;590;48.772;8.846;2023-11-18T13:13:43;9.00;94.80
254;DHT22;590;48.772;8.846;2023-11-18T13:16:12;9.00;94.80
254;DHT22;590;48.772;8.846;2023-11-18T13:18:42;9.10;95.00
254;DHT22;590;48.772;8.846;2023-11-18T13:21:14;9.10;95.10
254;DHT22;590;48.772;8.846;2023-11-18T13:23:47;9.10;95.20
254;DHT22;590;48.772;8.846;2023-11-18T13:26:17;9.10;95.10
254;DHT22;590;48.772;8.846;2023-11-18T13:28:46;9.10;95.40
254;DHT22;590;48.772;8.846;2023-11-18T13:31:14;9.00;95.70
254;DHT22;590;48.772;8.846;2023-11-18T13:33:43;9.00;96.10
254;DHT22;590;48.772;8.846;2023-11-18T13:36:14;9.00;96.40
254;DHT22;590;48.772;8.846;2023-11-18T13:38:42;8.90;96.50
254;DHT22;590;48.772;8.846;2023-11-18T13:41:12;8.90;96.50
254;DHT22;590;48.772;8.846;2023-11-18T13:43:44;8.90;96.50
254;DHT22;590;48.772;8.846;2023-11-18T13:46:14;8.80;96.20
254;DHT22;590;48.772;8.846;2023-11-18T13:48:47;8.80;96.30
254;DHT22;590;48.772;8.846;2023-11-18T13:51:16;8.80;96.60
254;DHT22;590;48.772;8.846;2023-11-18T13:53:47;8.80;97.10
254;DHT22;590;48.772;8.846;2023-11-18T13:56:19;8.90;96.70
254;DHT22;590;48.772;8.846;2023-11-18T13:58:49;8.90;96.30
254;DHT22;590;48.772;8.846;2023-11-18T14:01:17;8.80;96.20
254;DHT22;590;48.772;8.846;2023-11-18T14:03:45;8.80;96.30
254;DHT22;590;48.772;8.846;2023-11-18T14:06:14;8.80;96.20
254;DHT22;590;48.772;8.846;2023-11-18T14:08:44;8.70;96.00
254;DHT22;590;48.772;8.846;2023-11-18T14:11:12;8.70;96.00
254;DHT22;590;48.772;8.846;2023-11-18T14:13:45;8.60;96.30
254;DHT22;590;48.772;8.846;2023-11-18T14:16:13;8.60;96.70
254;DHT22;590;48.772;8.846;2023-11-18T14:18:43;8.60;96.70
254;DHT22;590;48.772;8.846;2023-11-18T14:21:11;8.60;96.70
254;DHT22;590;48.772;8.846;2023-11-18T14:23:41;8.60;96.70
254;DHT22;590;48.772;8.846;2023-11-18T14:26:09;8.60;96.90
254;DHT22;590;48.772;8.846;2023-11-18T14:28:37;8.60;97.10
254;DHT22;590;48.772;8.846;2023-11-18T14:31:07;8.50;97.20
254;DHT22;590;48.772;8.846;2023-11-18T14:33:38;8.50;97.00
254;DHT22;590;48.772;8.846;2023-11-18T14:36:06;8.50;97.30
254;DHT22;590;48.772;8.846;2023-11-18T14:38:36;8.50;97.50
254;DHT22;590;48.772;8.846;2023-11-18T14:41:04;8.40;97.80
254;DHT22;590;48.772;8.846;2023-11-18T14:43:35;8.50;98.00
254;DHT22;590;48.772;8.846;2023-11-18T14:46:03;8.40;98.30
254;DHT22;590;48.772;8.846;2023-11-18T14:48:33;8.40;98.80
254;DHT22;590;48.772;8.846;2023-11-18T14:51:01;8.40;99.00
254;DHT22;590;48.772;8.846;2023-11-18T14:53:29;8.40;99.00
254;DHT22;590;48.772;8.846;2023-11-18T14:55:57;8.40;98.90
254;DHT22;590;48.772;8.846;2023-11-18T14:58:25;8.40;99.10
254;DHT22;590;48.772;8.846;2023-11-18T15:00:53;8.40;99.20
254;DHT22;590;48.772;8.846;2023-11-18T15:03:23;8.40;99.60
254;DHT22;590;48.772;8.846;2023-11-18T15:05:53;8.40;99.90
254;DHT22;590;48.772;8.846;2023-11-18T15:08:21;8.40;99.90
254;DHT22;590;48.772;8.846;2023-11-18T15:10:49;8.30;99.80
254;DHT22;590;48.772;8.846;2023-11-18T15:13:17;8.30;99.90
254;DHT22;590;48.772;8.846;2023-11-18T15:15:46;8.30;99.90
254;DHT22;590;48.772;8.846;2023-11-18T15:18:15;8.30;99.90
254;DHT22;590;48.772;8.846;2023-11-18T15:20:45;8.20;99.90
254;DHT22;590;48.772;8.846;2023-11-18T15:23:16;8.20;99.90
254;DHT22;590;48.772;8.846;2023-11-18T15:25:45;8.20;99.90
254;DHT22;590;48.772;8.846;2023-11-18T15:28:13;8.20;99.90
254;DHT22;590;48.772;8.846;2023-11-18T15:30:41;8.20;99.90
254;DHT22;590;48.772;8.846;2023-11-18T15:33:11;8.20;99.90
254;DHT22;590;48.772;8.846;2023-11-18T15:35:40;8.20;99.90
254;DHT22;590;48.772;8.846;2023-11-18T15:38:08;8.10;99.90
254;DHT22;590;48.772;8.846;2023-11-18T15:40:37;8.10;99.90
254;DHT22;590;48.772;8.846;2023-11-18T15:43:05;8.10;99.90
254;DHT22;590;48.772;8.846;2023-11-18T15:45:33;8.10;99.90
254;DHT22;590;48.772;8.846;2023-11-18T15:48:02;8.10;99.90
254;DHT22;590;48.772;8.846;2023-11-18T15:50:32;8.00;99.90
254;DHT22;590;48.772;8.846;2023-11-18T15:53:04;8.00;99.90
254;DHT22;590;48.772;8.846;2023-11-18T15:55:34;8.00;99.90
254;DHT22;590;48.772;8.846;2023-11-18T15:58:04;8.00;99.90
254;DHT22;590;48.772;8.846;2023-11-18T16:00:32;8.00;99.90
254;DHT22;590;48.772;8.846;2023-11-18T16:03:03;8.00;99.90
254;DHT22;590;48.772;8.846;2023-11-18T16:05:36;7.90;99.90
254;DHT22;590;48.772;8.846;2023-11-18T16:08:04;7.90;99.90
254;DHT22;590;48.772;8.846;2023-11-18T16:10:34;7.90;99.90
254;DHT22;590;48.772;8.846;2023-11-18T16:13:05;7.90;99.90
254;DHT22;590;48.772;8.846;2023-11-18T16:15:34;8.00;99.90
254;DHT22;590;48.772;8.846;2023-11-18T16:18:03;8.00;99.90
254;DHT22;590;48.772;8.846;2023-11-18T16:20:32;7.90;99.90
254;DHT22;590;48.772;8.846;2023-11-18T16:23:01;7.90;99.90
254;DHT22;590;48.772;8.846;2023-11-18T16:25:32;7.90;99.90
254;DHT22;590;48.772;8.846;2023-11-18T16:28:02;7.90;99.90
254;DHT22;590;48.772;8.846;2023-11-18T16:30:32;7.90;99.90
254;DHT22;590;48.772;8.846;2023-11-18T16:33:01;7.90;99.90
254;DHT22;590;48.772;8.846;2023-11-18T16:35:30;7.90;99.90
254;DHT22;590;48.772;8.846;2023-11-18T16:37:59;7.90;99.90
254;DHT22;590;48.772;8.846;2023-11-18T16:40:28;7.90;99.90
254;DHT22;590;48.772;8.846;2023-11-18T16:42:56;7.90;99.90
254;DHT22;590;48.772;8.846;2023-11-18T16:45:27;7.90;99.90
254;DHT22;590;48.772;8.846;2023-11-18T16:47:57;7.90;99.90
254;DHT22;590;48.772;8.846;2023-11-18T16:50:25;7.90;99.90
254;DHT22;590;48.772;8.846;2023-11-18T16:52:54;7.90;99.90
254;DHT22;590;48.772;8.846;2023-11-18T16:55:23;7.90;99.90
254;DHT22;590;48.772;8.846;2023-11-18T16:57:52;7.90;99.90
254;DHT22;590;48.772;8.846;2023-11-18T17:00:21;7.90;99.90
254;DHT22;590;48.772;8.846;2023-11-18T17:02:51;7.80;99.90
254;DHT22;590;48.772;8.846;2023-11-18T17:05:26;7.90;99.90
254;DHT22;590;48.772;8.846;2023-11-18T17:07:55;7.90;99.90
254;DHT22;590;48.772;8.846;2023-11-18T17:10:23;7.90;99.90
254;DHT22;590;48.772;8.846;2023-11-18T17:12:51;7.90;99.90
254;DHT22;590;48.772;8.846;2023-11-18T17:15:20;7.90;99.90
254;DHT22;590;48.772;8.846;2023-11-18T17:17:49;7.80;99.90